Airfield :
LOGIN :

Register | Disclaimer

   EN    FR    IT 

 










Legend :    VFR   Marginal VFR   IFR   Intensive IFR   Very Intensive IFR
Visi :
Ceiling :
>= 8 km
>= 3000ft
5 to 8 km
1000 to 3000 ft
1500m to 5 km
500 to 1000 ft
800 to 1500m
200 to 500 ft
< 800m
< 200 ft
Symbols :   Thunderstorms  Fog  Heavy snow  Heavy precipitations  Wind > 20 kt
SIGMETs :     Misc.  Thunderstorms  Icing  Turbulence  Mountain Waves  Volcanic Ashes






- Airport Elevation : 355 ft
- IATA code : VBS


LIPO - Montichiari - Brescia

CURRENT METAR :
  • 290720Z AUTO 07005KT 040V100 9999 OVC062/// 16/09 Q1007

EXPIRED METARs :
  • 290650Z AUTO 05003KT 350V140 9999 OVC064/// 16/09 Q1007
  • 290620Z AUTO 12005KT 9999 BKN064/// 15/09 Q1007
  • 290550Z AUTO 14006KT 100V170 9999 -RA OVC060/// 16/09 Q1007
  • 290520Z AUTO 06004KT 030V090 9999 BKN058/// 16/09 Q1007
  • 290450Z AUTO 05005KT 030V090 9999 OVC061/// 15/09 Q1007

TAF TAF LIPO
Valid from the 29 at 06:00 until the 30 at 06:00 UTC


290500Z 2906/3006 10012KT 9999 SCT040
TEMPO 2906/2909 RA
BECMG 2922/2924 VRB05KT



MET'MAP, your aeronautical weather chart ! - Copyright ORBIFLY December 2007 - Disclaimer

ORBIFLY MET'MAP TEAM :

Programming & Development : Alexandra Zaïnal
Original concept : Baudouin d'Aumeries
Technical & hardware support : Manuel Goepfert
Assistance : Marc-Olivier Méhu

Contact : metmap@orbifly.com




SOURCES & CREDITS :

   NOAA